Time;durP1;ratioP1;P1;durP2;ratioP2;P2;SDS_P1;SDS_P2;PMS_P1;PMS_P2;Temp;Humidity;BMP_temperature;BMP_pressure;BME280_temperature;BME280_humidity;BME280_pressure;Samples;Min_cycle;Max_cycle;Signal;HPM_P1;HPM_P2
2022/06/22 00:02:07;;;;;;;29.88;19.40;;;;;;;17.98;64.93;101018.13;4918469;28;121381;-81
2022/06/22 00:04:41;;;;;;;29.77;19.80;;;;;;;17.96;64.84;101007.53;4872536;28;121187;-80
2022/06/22 00:07:31;;;;;;;32.25;19.98;;;;;;;18.02;64.70;101013.13;4917203;28;120661;-81
2022/06/22 00:10:16;;;;;;;25.15;17.75;;;;;;;18.05;64.70;101012.13;4909503;28;119847;-82
2022/06/22 00:12:46;;;;;;;30.58;18.70;;;;;;;18.07;64.83;101017.97;4916085;28;119876;-81
2022/06/22 00:15:47;;;;;;;31.60;18.48;;;;;;;18.10;64.82;101008.63;4890086;28;121387;-81
2022/06/22 00:18:41;;;;;;;28.17;18.63;;;;;;;18.03;64.77;100998.00;4896725;28;119958;-81
2022/06/22 00:21:27;;;;;;;25.80;18.90;;;;;;;18.15;64.70;101007.16;4910208;28;120012;-81
2022/06/22 00:24:00;;;;;;;27.23;18.67;;;;;;;18.12;64.80;100999.81;4883348;28;120757;-81
2022/06/22 00:26:28;;;;;;;30.25;18.58;;;;;;;18.16;64.51;101003.88;4902173;28;119541;-81
2022/06/22 00:29:19;;;;;;;28.67;19.08;;;;;;;18.15;64.87;101002.34;4915683;28;119293;-81
2022/06/22 00:31:48;;;;;;;30.45;18.50;;;;;;;18.20;64.74;101009.94;4916088;28;119904;-81
2022/06/22 00:34:20;;;;;;;29.92;18.55;;;;;;;18.21;64.82;101007.94;4907930;28;120375;-80
2022/06/22 00:36:48;;;;;;;33.13;19.02;;;;;;;18.23;64.90;101000.66;4912944;28;119598;-81
2022/06/22 00:39:16;;;;;;;29.85;19.35;;;;;;;18.20;64.75;100993.28;4916087;28;119877;-81
2022/06/22 00:41:51;;;;;;;30.05;19.13;;;;;;;18.24;64.54;101001.41;4912711;28;120260;-81
2022/06/22 00:44:19;;;;;;;31.48;19.10;;;;;;;18.23;64.47;101000.66;4899354;28;119311;-82
2022/06/22 00:46:56;;;;;;;29.65;18.90;;;;;;;18.20;64.54;100989.75;4912298;28;119922;-81
2022/06/22 00:49:23;;;;;;;27.92;19.83;;;;;;;18.18;64.90;100981.94;4908739;28;119421;-81
2022/06/22 00:51:49;;;;;;;29.92;19.27;;;;;;;18.17;65.16;100985.97;4908043;28;119666;-81
2022/06/22 00:54:23;;;;;;;29.25;19.65;;;;;;;18.21;64.62;100992.03;4912061;28;119454;-81
2022/06/22 00:57:04;;;;;;;30.27;19.63;;;;;;;18.11;64.69;100976.84;4894362;28;119836;-83
2022/06/22 00:59:48;;;;;;;27.45;18.95;;;;;;;18.24;64.71;100999.41;4914989;28;119448;-82
2022/06/22 01:02:34;;;;;;;32.92;20.45;;;;;;;18.22;64.98;100988.03;4902338;28;119793;-82
2022/06/22 01:05:25;;;;;;;28.60;20.88;;;;;;;18.18;64.86;100981.94;4913201;28;120658;-82
2022/06/22 01:08:25;;;;;;;32.13;21.02;;;;;;;18.24;64.89;100991.06;4910196;28;119827;-82
2022/06/22 01:12:16;;;;;;;30.50;20.73;;;;;;;18.23;64.94;100986.78;4915858;28;119550;-82
2022/06/22 01:14:04;;;;;;;29.63;20.48;;;;;;;18.22;64.68;100976.16;4909680;28;119347;-79
2022/06/22 01:16:37;;;;;;;29.60;21.05;;;;;;;18.23;64.79;100980.47;4895676;28;120036;-82
2022/06/22 01:19:28;;;;;;;30.23;21.40;;;;;;;18.19;65.03;100977.91;4903836;28;121599;-80
2022/06/22 01:22:16;;;;;;;30.42;21.42;;;;;;;18.20;64.67;100971.09;4891381;28;119705;-82
2022/06/22 01:25:06;;;;;;;30.50;21.45;;;;;;;18.18;64.83;100981.16;4903784;28;119942;-82
2022/06/22 01:27:35;;;;;;;37.78;20.40;;;;;;;18.12;64.62;100978.38;4910293;28;119295;-82
2022/06/22 01:30:24;;;;;;;29.75;21.55;;;;;;;18.15;64.75;100999.56;4881804;28;119379;-82
2022/06/22 01:32:53;;;;;;;31.65;21.23;;;;;;;18.09;65.00;100985.66;4890138;28;119491;-82
2022/06/22 01:35:26;;;;;;;30.58;20.80;;;;;;;18.13;64.88;100993.75;4916087;28;120580;-82
2022/06/22 01:37:52;;;;;;;37.50;20.58;;;;;;;18.04;64.88;100977.31;4915259;28;119579;-82
2022/06/22 01:40:22;;;;;;;31.08;19.98;;;;;;;18.11;64.88;100987.94;4898598;28;121496;-81
2022/06/22 01:43:02;;;;;;;29.98;20.05;;;;;;;18.04;64.95;100968.97;4916968;28;119480;-81
2022/06/22 01:45:51;;;;;;;33.55;19.95;;;;;;;18.12;65.18;100978.38;4917257;28;119932;-81
2022/06/22 01:48:39;;;;;;;28.38;18.63;;;;;;;18.14;65.16;100969.53;4909893;28;120417;-81
2022/06/22 01:51:14;;;;;;;32.10;19.30;;;;;;;18.12;65.05;100967.25;4900392;28;119795;-81
2022/06/22 01:53:53;;;;;;;26.40;18.55;;;;;;;18.15;64.72;100980.16;4916511;28;119475;-81
2022/06/22 01:56:26;;;;;;;25.88;17.67;;;;;;;18.19;65.05;100979.91;4882476;28;119452;-81
2022/06/22 01:59:27;;;;;;;27.92;17.00;;;;;;;18.18;64.96;100976.38;4919450;28;119618;-81
2022/06/22 02:02:08;;;;;;;26.98;15.68;;;;;;;18.18;64.75;100970.81;4886439;28;119532;-82
2022/06/22 02:04:51;;;;;;;27.17;13.82;;;;;;;18.18;64.75;100976.38;4879087;28;119406;-81
2022/06/22 02:10:55;;;;;;;29.33;13.45;;;;;;;18.19;64.86;100977.13;4896028;28;121131;-82
2022/06/22 02:13:53;;;;;;;23.80;13.20;;;;;;;18.18;64.83;100981.94;4867033;28;119681;-81
2022/06/22 02:16:45;;;;;;;23.50;13.02;;;;;;;18.17;65.22;100996.31;4915638;28;119420;-81
2022/06/22 02:19:15;;;;;;;25.60;13.50;;;;;;;18.19;64.86;101005.66;4880290;28;119363;-81
2022/06/22 02:21:46;;;;;;;22.88;12.95;;;;;;;18.22;65.24;101001.16;4891064;28;119369;-81
2022/06/22 02:24:36;;;;;;;26.95;13.18;;;;;;;18.23;65.02;101000.66;4906731;28;119634;-81
2022/06/22 02:27:18;;;;;;;26.40;13.02;;;;;;;18.24;65.25;100995.88;4903821;28;119280;-81
2022/06/22 02:29:48;;;;;;;24.73;12.82;;;;;;;18.27;65.04;100984.53;4914546;28;120286;-81
2022/06/22 02:32:18;;;;;;;23.60;13.32;;;;;;;18.29;65.04;100997.91;4895470;28;119299;-81
2022/06/22 02:34:48;;;;;;;24.42;13.18;;;;;;;18.26;64.92;100985.78;4913856;28;119762;-81
2022/06/22 02:37:17;;;;;;;23.73;12.10;;;;;;;18.27;64.62;100984.53;4916287;28;119693;-81
2022/06/22 02:39:56;;;;;;;21.75;11.10;;;;;;;18.25;64.49;100970.38;4913070;28;119342;-82
2022/06/22 02:45:08;;;;;;;27.40;11.15;;;;;;;18.26;64.34;100976.69;4900746;28;120555;-81
2022/06/22 02:47:56;;;;;;;24.80;11.43;;;;;;;18.31;64.39;100990.59;4913709;28;119537;-81
2022/06/22 02:50:48;;;;;;;20.60;10.60;;;;;;;18.32;64.26;100988.59;4914401;28;119630;-81
2022/06/22 02:53:33;;;;;;;21.17;10.88;;;;;;;18.28;64.21;100972.16;4899202;28;120427;-80
2022/06/22 02:56:02;;;;;;;22.25;11.23;;;;;;;18.33;64.60;100981.78;4896034;28;119408;-81
2022/06/22 02:58:34;;;;;;;21.55;10.35;;;;;;;18.36;64.50;100975.97;4913785;28;119398;-81
2022/06/22 03:01:23;;;;;;;22.20;10.00;;;;;;;18.37;64.20;100980.28;4879964;28;120793;-81
2022/06/22 03:03:52;;;;;;;24.33;10.50;;;;;;;18.37;63.91;100979.50;4918109;28;119675;-80
2022/06/22 03:06:23;;;;;;;23.30;10.15;;;;;;;18.36;64.03;100975.97;4917939;28;119626;-81
2022/06/22 03:08:50;;;;;;;20.83;9.85;;;;;;;18.37;64.23;100968.41;4904914;28;121454;-81
2022/06/22 03:11:17;;;;;;;23.38;9.55;;;;;;;18.36;64.08;100964.88;4901917;28;120050;-81
2022/06/22 03:13:51;;;;;;;20.52;9.75;;;;;;;18.38;64.09;100962.34;4919182;28;119399;-80
2022/06/22 03:16:31;;;;;;;21.20;10.20;;;;;;;18.36;64.10;100956.53;4912965;28;120084;-81
2022/06/22 03:19:02;;;;;;;25.77;9.65;;;;;;;18.39;64.08;100972.19;4883161;28;119957;-81
2022/06/22 03:21:28;;;;;;;23.52;10.07;;;;;;;18.37;63.98;100977.50;4901538;28;119479;-81
2022/06/22 03:23:57;;;;;;;17.23;9.70;;;;;;;18.39;64.12;100977.75;4917423;28;119303;-81
2022/06/22 03:26:27;;;;;;;19.30;9.73;;;;;;;18.40;64.05;100982.06;4918574;28;119848;-81
2022/06/22 03:29:10;;;;;;;19.65;9.65;;;;;;;18.37;63.90;100962.84;4918911;28;119993;-81
2022/06/22 03:32:13;;;;;;;21.75;9.43;;;;;;;18.40;63.94;100978.50;4886070;28;119991;-81
2022/06/22 03:34:42;;;;;;;17.90;9.10;;;;;;;18.39;64.07;100972.19;4893221;28;120999;-81
2022/06/22 03:37:18;;;;;;;20.90;9.73;;;;;;;18.40;64.21;100970.94;4900957;28;119482;-81
2022/06/22 03:39:49;;;;;;;20.15;9.55;;;;;;;18.35;63.96;100951.47;4914808;28;119508;-81
2022/06/22 03:42:28;;;;;;;21.80;10.60;;;;;;;18.41;63.64;100960.59;4881898;28;120922;-81
2022/06/22 03:45:00;;;;;;;19.58;9.40;;;;;;;18.42;63.81;100971.19;4882380;28;119495;-81
2022/06/22 03:47:37;;;;;;;21.30;9.40;;;;;;;18.41;63.59;100960.59;4917411;28;119233;-81
2022/06/22 03:50:05;;;;;;;24.25;9.57;;;;;;;18.47;63.98;100971.75;4919327;28;119320;-81
2022/06/22 03:52:36;;;;;;;22.65;10.25;;;;;;;18.47;63.66;100969.72;4917195;28;119456;-81
2022/06/22 03:55:07;;;;;;;22.45;10.05;;;;;;;18.47;63.77;100957.88;4921127;28;119779;-81
2022/06/22 03:57:36;;;;;;;19.40;8.98;;;;;;;18.58;63.44;100963.44;4919115;28;119650;-81
2022/06/22 04:00:08;;;;;;;17.42;9.52;;;;;;;18.61;63.47;100963.22;4914136;28;119427;-80
2022/06/22 04:02:54;;;;;;;21.35;9.40;;;;;;;18.63;63.54;100951.63;4905740;28;119858;-81
2022/06/22 04:05:24;;;;;;;22.13;9.68;;;;;;;18.74;63.45;100960.00;4910106;28;119443;-81
2022/06/22 04:07:51;;;;;;;24.70;9.65;;;;;;;18.74;63.20;100945.34;4918137;28;119640;-81
2022/06/22 04:10:48;;;;;;;25.17;9.48;;;;;;;18.77;62.93;100945.09;4900422;28;122635;-81
2022/06/22 04:13:24;;;;;;;23.85;9.77;;;;;;;18.80;62.93;100946.13;4899213;28;119504;-82
2022/06/22 04:16:37;;;;;;;18.92;8.98;;;;;;;18.82;62.54;100944.38;4915875;28;119817;-81
2022/06/22 04:19:35;;;;;;;20.95;9.27;;;;;;;18.84;62.57;100952.19;4893272;28;119718;-81
2022/06/22 04:22:12;;;;;;;20.27;8.52;;;;;;;18.84;62.74;100960.53;4882253;28;119717;-81
2022/06/22 04:24:52;;;;;;;21.90;9.13;;;;;;;18.76;62.77;100954.72;4897261;28;119692;-82
2022/06/22 04:27:27;;;;;;;19.83;9.13;;;;;;;18.83;62.96;100954.22;4918806;28;119405;-81
2022/06/22 04:30:09;;;;;;;21.15;8.85;;;;;;;18.80;62.50;100958.00;4916777;28;121395;-81
2022/06/22 04:32:50;;;;;;;19.92;9.02;;;;;;;18.83;62.88;100965.34;4899519;28;119567;-81
2022/06/22 04:35:24;;;;;;;26.67;9.05;;;;;;;18.83;63.00;100956.25;4900908;28;119619;-81
2022/06/22 04:38:14;;;;;;;21.58;8.60;;;;;;;18.84;62.87;100958.50;4900723;28;119482;-81
2022/06/22 04:40:49;;;;;;;22.08;9.38;;;;;;;18.85;63.64;100960.03;4916026;28;120003;-81
2022/06/22 04:43:21;;;;;;;20.33;9.50;;;;;;;18.82;63.30;100965.84;4922126;28;119399;-80
2022/06/22 04:45:48;;;;;;;23.50;10.55;;;;;;;18.87;63.09;100968.63;4917363;28;120160;-81
2022/06/22 04:48:21;;;;;;;19.15;9.68;;;;;;;18.85;63.57;100982.25;4900546;28;119718;-81
2022/06/22 04:50:51;;;;;;;16.90;9.38;;;;;;;18.85;63.39;100985.03;4916713;28;119607;-81
2022/06/22 04:53:26;;;;;;;19.98;9.63;;;;;;;18.85;63.43;100992.63;4915972;28;119768;-81
2022/06/22 04:56:17;;;;;;;21.25;10.15;;;;;;;18.86;63.84;101002.47;4901582;28;119793;-81
2022/06/22 04:58:51;;;;;;;26.15;10.68;;;;;;;18.83;63.72;100984.78;4917532;28;119651;-81
2022/06/22 05:01:57;;;;;;;25.88;10.20;;;;;;;18.87;63.91;100992.88;4916780;28;120172;-81
2022/06/22 05:04:29;;;;;;;21.27;10.32;;;;;;;18.88;63.58;101003.50;4892344;28;119725;-81
2022/06/22 05:07:20;;;;;;;23.48;9.98;;;;;;;18.92;63.57;101009.56;4915510;28;120431;-81
2022/06/22 05:09:54;;;;;;;20.33;9.82;;;;;;;18.93;63.72;101002.03;4900688;28;119803;-81
2022/06/22 05:12:24;;;;;;;21.63;9.75;;;;;;;18.94;63.66;101009.09;4912724;28;119589;-81
2022/06/22 05:14:54;;;;;;;19.50;9.57;;;;;;;18.95;63.45;101005.81;4896308;28;119505;-81
2022/06/22 05:17:26;;;;;;;19.77;9.05;;;;;;;18.92;63.53;101003.25;4897610;28;119470;-81
2022/06/22 05:20:15;;;;;;;20.83;9.60;;;;;;;18.93;63.41;101005.56;4898115;28;121376;-81
2022/06/22 05:22:41;;;;;;;22.08;9.20;;;;;;;18.91;63.13;100994.16;4882027;28;119523;-81
2022/06/22 05:25:11;;;;;;;19.63;9.40;;;;;;;18.96;63.47;101007.34;4898026;28;119727;-81
2022/06/22 05:27:51;;;;;;;19.98;9.82;;;;;;;18.97;63.45;101006.06;4903451;28;119577;-81
2022/06/22 05:30:17;;;;;;;21.52;9.40;;;;;;;18.99;63.49;100998.00;4918188;28;119646;-82
2022/06/22 05:32:52;;;;;;;19.88;9.35;;;;;;;19.03;63.58;100997.75;4915071;28;120565;-82
2022/06/22 05:35:23;;;;;;;26.52;9.60;;;;;;;19.05;63.63;100992.44;4899425;28;119556;-81
2022/06/22 05:37:52;;;;;;;21.30;9.50;;;;;;;19.11;63.72;100998.00;4917832;28;119232;-81
2022/06/22 05:40:23;;;;;;;18.85;9.85;;;;;;;19.12;63.57;100977.28;4899950;28;120108;-81
2022/06/22 05:42:49;;;;;;;24.00;9.27;;;;;;;19.15;63.13;100992.94;4914605;28;120169;-81
2022/06/22 05:45:17;;;;;;;23.15;9.57;;;;;;;19.16;63.44;100997.25;4914742;28;119766;-81
2022/06/22 05:47:47;;;;;;;20.05;10.00;;;;;;;19.16;63.54;100991.69;4915788;28;119713;-81
2022/06/22 05:50:26;;;;;;;19.48;10.23;;;;;;;19.17;64.06;100994.00;4919279;28;119494;-81
2022/06/22 05:52:59;;;;;;;24.33;9.82;;;;;;;19.17;63.75;100994.00;4914772;28;121251;-81
2022/06/22 05:55:39;;;;;;;28.50;10.20;;;;;;;19.17;63.57;101001.56;4898792;28;122607;-82
2022/06/22 05:58:28;;;;;;;23.20;9.80;;;;;;;19.22;64.16;100998.78;4917940;28;119385;-81
2022/06/22 06:00:57;;;;;;;19.90;9.88;;;;;;;19.24;64.12;100984.38;4914380;28;119825;-81
2022/06/22 06:03:35;;;;;;;20.73;9.82;;;;;;;19.26;63.51;100979.06;4898972;28;121516;-81
2022/06/22 06:06:13;;;;;;;20.95;9.88;;;;;;;19.33;63.49;100990.47;4916802;28;119632;-81
2022/06/22 06:08:46;;;;;;;21.50;10.90;;;;;;;19.32;63.38;100985.41;4915302;28;120704;-81
2022/06/22 06:11:20;;;;;;;19.77;9.77;;;;;;;19.37;63.39;100992.22;4914672;28;120705;-81
2022/06/22 06:13:50;;;;;;;24.38;8.90;;;;;;;19.38;63.31;100996.53;4919380;28;119493;-81
2022/06/22 06:16:25;;;;;;;21.20;9.85;;;;;;;19.43;63.59;101004.16;4898287;28;120755;-82
2022/06/22 06:18:55;;;;;;;21.15;9.77;;;;;;;19.48;63.36;101015.28;4914362;28;119670;-81
2022/06/22 06:21:25;;;;;;;22.27;8.98;;;;;;;19.51;63.16;101011.47;4916473;28;119714;-81
2022/06/22 06:24:00;;;;;;;21.70;9.82;;;;;;;19.50;62.91;101006.41;4914707;28;119672;-81
2022/06/22 06:30:00;;;;;;;19.63;9.50;;;;;;;19.54;62.92;101010.50;4890523;28;119823;-81
2022/06/22 06:32:47;;;;;;;25.20;9.75;;;;;;;19.54;63.04;101010.50;4894798;28;120570;-81
2022/06/22 06:35:28;;;;;;;23.40;9.27;;;;;;;19.54;63.25;101015.28;4894158;28;119386;-81
2022/06/22 06:37:57;;;;;;;22.95;9.95;;;;;;;19.52;62.85;101015.78;4901406;28;119550;-82
2022/06/22 06:40:48;;;;;;;23.98;9.60;;;;;;;19.51;63.21;101008.69;4902010;28;119722;-81
2022/06/22 06:43:28;;;;;;;20.55;10.23;;;;;;;19.51;63.33;101014.25;4909468;28;120054;-81
2022/06/22 06:45:56;;;;;;;22.88;10.18;;;;;;;19.52;63.56;101020.59;4911610;28;120651;-81
2022/06/22 06:48:25;;;;;;;18.95;10.45;;;;;;;19.53;64.07;101024.88;4916760;28;119489;-81
2022/06/22 06:50:55;;;;;;;18.30;10.15;;;;;;;19.51;63.87;101019.06;4885927;28;121284;-82
2022/06/22 06:53:33;;;;;;;20.50;10.77;;;;;;;19.53;64.00;101027.66;4914243;28;119797;-82
2022/06/22 06:56:18;;;;;;;24.30;11.25;;;;;;;19.51;64.47;101030.94;4917703;28;119402;-81
2022/06/22 06:58:54;;;;;;;22.10;11.88;;;;;;;19.52;64.64;101023.38;4913638;28;119559;-81
2022/06/22 07:01:33;;;;;;;25.10;11.93;;;;;;;19.52;64.99;101015.00;4898184;28;120070;-81
2022/06/22 07:04:29;;;;;;;26.02;12.93;;;;;;;19.55;65.21;101012.00;4907796;28;119745;-81
2022/06/22 07:07:00;;;;;;;21.02;11.95;;;;;;;19.54;65.69;101007.72;4898019;28;120671;-81
2022/06/22 07:09:33;;;;;;;26.92;12.57;;;;;;;19.56;65.59;101018.34;4909214;28;120034;-82
2022/06/22 07:12:05;;;;;;;27.35;12.00;;;;;;;19.57;65.49;101023.41;4909883;28;119839;-81
2022/06/22 07:14:35;;;;;;;22.42;12.75;;;;;;;19.59;65.60;101025.66;4914416;28;119605;-81
2022/06/22 07:17:09;;;;;;;24.08;12.60;;;;;;;19.59;65.87;101020.88;4907049;28;119849;-81
2022/06/22 07:19:35;;;;;;;25.40;12.88;;;;;;;19.59;66.13;101017.31;4910859;28;119749;-81
2022/06/22 07:22:00;;;;;;;24.85;13.40;;;;;;;19.59;66.31;101020.09;4897560;28;121770;-81
2022/06/22 07:24:33;;;;;;;23.88;13.02;;;;;;;19.59;66.18;101022.88;4901493;28;119521;-81
2022/06/22 07:27:28;;;;;;;24.65;12.80;;;;;;;19.61;66.46;101023.13;4900215;28;119622;-81
2022/06/22 07:30:25;;;;;;;23.80;11.90;;;;;;;19.61;66.84;101018.31;4912315;28;119869;-81
2022/06/22 07:33:09;;;;;;;22.88;12.00;;;;;;;19.65;67.24;101023.66;4909837;28;119495;-81
2022/06/22 07:35:48;;;;;;;25.25;11.75;;;;;;;19.66;67.19;101024.44;4909143;28;119911;-81
2022/06/22 07:38:46;;;;;;;18.88;11.02;;;;;;;19.71;66.74;101026.44;4913146;28;119469;-81
2022/06/22 07:41:22;;;;;;;20.02;10.77;;;;;;;19.73;66.86;101016.31;4899396;28;120338;-81
2022/06/22 07:44:04;;;;;;;22.25;11.05;;;;;;;19.77;67.17;101014.03;4891416;28;122607;-81
2022/06/22 07:46:42;;;;;;;26.83;10.40;;;;;;;19.80;67.22;101013.03;4913868;28;119447;-82
2022/06/22 07:49:20;;;;;;;17.05;9.93;;;;;;;19.74;66.78;101015.06;4908186;28;119420;-81
2022/06/22 07:51:56;;;;;;;15.82;9.57;;;;;;;19.74;66.74;101001.16;4908690;28;119802;-81
2022/06/22 07:54:31;;;;;;;19.33;9.13;;;;;;;19.78;66.51;101012.00;4917366;28;119913;-81
2022/06/22 07:57:05;;;;;;;18.15;8.35;;;;;;;19.83;67.02;101014.78;4906406;28;120178;-82
2022/06/22 08:00:08;;;;;;;14.38;8.45;;;;;;;19.84;66.85;101019.09;4911607;28;119786;-81
2022/06/22 08:02:56;;;;;;;14.27;7.47;;;;;;;19.82;66.99;101023.66;4851998;28;120011;-81
2022/06/22 08:05:45;;;;;;;13.63;7.88;;;;;;;19.78;66.78;101031.50;4898949;28;122239;-81
2022/06/22 08:08:20;;;;;;;14.52;8.10;;;;;;;19.78;66.97;101040.59;4912067;28;119710;-81
2022/06/22 08:11:07;;;;;;;12.90;7.20;;;;;;;19.76;66.77;101042.38;4901445;28;120100;-81
2022/06/22 08:13:50;;;;;;;15.35;7.82;;;;;;;19.73;66.89;101048.97;4912191;28;119594;-81
2022/06/22 08:16:28;;;;;;;12.50;7.45;;;;;;;19.71;67.05;101038.34;4912431;28;119520;-81
2022/06/22 08:18:55;;;;;;;16.60;7.80;;;;;;;19.67;67.29;101031.50;4911590;28;121622;-81
2022/06/22 08:21:22;;;;;;;15.70;8.68;;;;;;;19.74;67.46;101042.13;4894673;28;121033;-81
2022/06/22 08:23:49;;;;;;;15.77;8.70;;;;;;;19.78;67.72;101032.25;4901039;28;119451;-81
2022/06/22 08:26:24;;;;;;;16.73;8.27;;;;;;;19.84;68.06;101035.78;4895695;28;120006;-81
2022/06/22 08:28:51;;;;;;;15.40;8.73;;;;;;;19.92;68.36;101024.94;4866212;28;119547;-81
2022/06/22 08:31:17;;;;;;;15.52;7.38;;;;;;;19.98;68.12;101017.31;4922388;28;119905;-81
2022/06/22 08:33:48;;;;;;;13.40;6.50;;;;;;;19.99;67.35;101002.13;4918984;28;118848;-81
2022/06/22 08:36:23;;;;;;;11.52;6.05;;;;;;;20.10;66.83;101020.84;4908452;28;119648;-81
2022/06/22 08:39:04;;;;;;;9.75;5.78;;;;;;;20.09;66.88;101022.09;4898471;28;122616;-81
2022/06/22 08:41:42;;;;;;;10.45;5.20;;;;;;;20.08;66.52;101015.78;4912752;28;120117;-82
2022/06/22 08:44:26;;;;;;;9.68;5.43;;;;;;;20.07;66.69;101025.41;4908107;28;120633;-82
2022/06/22 08:47:06;;;;;;;12.93;5.15;;;;;;;20.06;66.17;101035.03;4904208;28;120610;-82
2022/06/22 08:50:02;;;;;;;10.55;5.47;;;;;;;20.08;66.68;101035.28;4896607;28;119853;-82
2022/06/22 08:52:47;;;;;;;10.60;5.55;;;;;;;20.10;66.84;101032.75;4920971;28;119493;-82
2022/06/22 08:55:15;;;;;;;9.02;5.00;;;;;;;20.14;66.91;101035.28;4905871;28;119493;-81
2022/06/22 08:57:54;;;;;;;10.05;5.40;;;;;;;20.16;66.83;101033.50;4914634;28;118799;-81
2022/06/22 09:00:23;;;;;;;10.48;5.28;;;;;;;20.17;66.93;101029.47;4897968;28;119832;-81
2022/06/22 09:03:11;;;;;;;13.15;5.50;;;;;;;20.19;66.86;101029.69;4894070;28;119781;-81
2022/06/22 09:06:08;;;;;;;8.93;5.18;;;;;;;20.19;66.86;101037.31;4915119;28;119604;-82
2022/06/22 09:08:46;;;;;;;12.90;5.47;;;;;;;20.17;66.89;101029.47;4895999;28;120908;-81
2022/06/22 09:11:29;;;;;;;9.30;5.18;;;;;;;20.16;66.55;101032.75;4909860;28;119672;-81
2022/06/22 09:14:27;;;;;;;11.95;5.65;;;;;;;20.09;66.63;101039.56;4925081;28;119579;-82
2022/06/22 09:17:49;;;;;;;12.60;5.10;;;;;;;20.11;66.75;101042.63;4909772;28;119697;-81
2022/06/22 09:20:28;;;;;;;6.13;2.88;;;;;;;20.04;65.81;101034.78;4899118;28;120236;-81
2022/06/22 09:22:57;;;;;;;7.20;2.88;;;;;;;20.06;66.04;101039.84;4895276;28;120070;-82
2022/06/22 09:25:26;;;;;;;6.47;2.75;;;;;;;20.09;65.33;101050.72;4911837;28;120452;-81
2022/06/22 09:28:35;;;;;;;5.25;2.83;;;;;;;20.09;65.28;101050.72;4910683;28;119708;-82
2022/06/22 09:31:42;;;;;;;4.85;2.55;;;;;;;20.11;65.47;101050.19;4908052;28;119705;-82
2022/06/22 09:34:14;;;;;;;6.05;2.80;;;;;;;20.14;66.04;101049.97;4880134;28;119734;-81
2022/06/22 09:37:19;;;;;;;7.50;2.78;;;;;;;20.13;65.27;101044.91;4910025;28;119794;-82
2022/06/22 09:40:16;;;;;;;5.55;2.83;;;;;;;20.21;65.28;101060.59;4901796;28;119617;-81
2022/06/22 09:43:18;;;;;;;5.72;2.80;;;;;;;20.34;64.69;101050.94;4914249;28;119854;-82
2022/06/22 09:46:31;;;;;;;7.63;2.60;;;;;;;20.42;64.50;101060.34;4919785;28;119725;-82
2022/06/22 09:49:20;;;;;;;5.68;2.25;;;;;;;20.50;63.92;101059.28;4864097;28;119674;-81
2022/06/22 09:51:57;;;;;;;4.53;1.80;;;;;;;20.55;62.98;101063.31;4900201;28;119685;-81
2022/06/22 09:58:15;;;;;;;5.63;2.42;;;;;;;20.60;62.49;101065.38;4913859;28;119419;-81
2022/06/22 10:01:05;;;;;;;3.90;1.85;;;;;;;20.62;62.48;101073.97;4868308;28;123697;-81
2022/06/22 10:03:52;;;;;;;8.00;2.00;;;;;;;20.64;62.04;101065.84;4912348;28;119742;-82
2022/06/22 10:06:39;;;;;;;4.00;2.10;;;;;;;20.63;62.04;101063.56;4914607;28;119796;-82
2022/06/22 10:09:10;;;;;;;7.30;2.30;;;;;;;20.72;61.88;101069.63;4900939;28;119834;-83
2022/06/22 10:11:52;;;;;;;4.85;2.30;;;;;;;20.80;61.82;101078.97;4917172;28;119607;-82
2022/06/22 10:14:56;;;;;;;5.47;2.05;;;;;;;20.82;61.76;101076.44;4914473;28;119471;-82
2022/06/22 10:17:47;;;;;;;4.28;2.15;;;;;;;20.83;61.12;101077.19;4907905;28;119992;-82
2022/06/22 10:20:29;;;;;;;4.15;1.77;;;;;;;20.84;60.90;101073.91;4910655;28;119674;-81
2022/06/22 10:23:25;;;;;;;5.10;2.15;;;;;;;20.83;61.04;101069.59;4911263;28;120459;-82
2022/06/22 10:25:59;;;;;;;3.90;2.10;;;;;;;20.90;60.92;101070.31;4913138;28;120185;-81
2022/06/22 10:28:47;;;;;;;5.00;2.08;;;;;;;20.92;59.82;101068.53;4892200;28;119790;-82
2022/06/22 10:31:44;;;;;;;4.35;1.90;;;;;;;20.91;60.74;101071.84;4914413;28;119648;-82
2022/06/22 10:34:38;;;;;;;4.15;2.25;;;;;;;20.91;61.34;101077.41;4926597;28;119851;-81
2022/06/22 10:37:27;;;;;;;2.45;1.90;;;;;;;20.87;60.96;101071.34;4916589;28;119627;-81
2022/06/22 10:45:08;;;;;;;4.20;1.92;;;;;;;20.91;59.96;101077.41;4895576;28;119528;-81
2022/06/22 10:46:19;;;;;;;3.95;2.10;;;;;;;20.94;61.11;101082.72;4913615;28;120080;-81
2022/06/22 10:48:55;;;;;;;4.40;2.40;;;;;;;20.98;61.52;101076.88;4897139;28;120245;-82
2022/06/22 10:51:46;;;;;;;4.85;2.00;;;;;;;21.03;60.70;101074.06;4908761;28;119759;-82
2022/06/22 10:54:49;;;;;;;4.63;1.90;;;;;;;21.05;61.05;101065.16;4914794;28;119730;-81
2022/06/22 10:57:33;;;;;;;3.43;1.70;;;;;;;21.08;60.83;101069.75;4913436;28;120434;-82
2022/06/22 11:00:34;;;;;;;4.57;2.10;;;;;;;21.04;60.80;101060.88;4913471;28;119704;-81
2022/06/22 11:03:57;;;;;;;3.42;2.17;;;;;;;21.07;60.88;101065.44;4854613;28;120086;-81
2022/06/22 11:06:57;;;;;;;3.78;1.92;;;;;;;21.09;60.72;101065.69;4846364;28;120044;-81
2022/06/22 11:09:38;;;;;;;4.65;2.00;;;;;;;21.12;61.08;101067.44;4915092;28;120066;-82
2022/06/22 11:12:29;;;;;;;4.20;1.90;;;;;;;21.14;60.85;101067.69;4928392;28;119735;-82
2022/06/22 11:14:58;;;;;;;5.30;2.00;;;;;;;21.15;60.84;101058.78;4913687;28;119781;-82
2022/06/22 11:17:23;;;;;;;3.17;1.80;;;;;;;21.18;60.76;101057.00;4893551;28;120344;-81
2022/06/22 11:19:55;;;;;;;6.53;2.38;;;;;;;21.18;60.10;101062.59;4897387;28;120338;-81
2022/06/22 11:22:24;;;;;;;2.53;1.70;;;;;;;21.15;60.11;101061.59;4892165;28;119673;-82
2022/06/22 11:25:14;;;;;;;3.50;1.67;;;;;;;21.14;60.75;101059.31;4898725;28;119641;-82
2022/06/22 11:31:07;;;;;;;5.40;2.03;;;;;;;21.09;60.17;101072.03;4893989;28;119751;-82
2022/06/22 11:33:55;;;;;;;5.60;1.77;;;;;;;21.10;59.62;101070.00;4917261;28;121116;-81
2022/06/22 11:36:38;;;;;;;3.17;1.90;;;;;;;21.04;60.09;101058.06;4916432;28;120020;-82
2022/06/22 11:39:18;;;;;;;4.78;2.03;;;;;;;21.02;60.48;101055.81;4909891;28;120119;-82
2022/06/22 11:41:50;;;;;;;3.75;1.52;;;;;;;21.12;60.35;101076.56;4913030;28;120622;-82
2022/06/22 11:45:50;;;;;;;3.63;2.13;;;;;;;21.13;59.97;101069.72;4916296;28;119659;-82
2022/06/22 11:48:01;;;;;;;3.65;2.00;;;;;;;21.10;60.62;101062.38;4914486;28;121232;-82
2022/06/22 11:50:45;;;;;;;4.10;1.65;;;;;;;21.14;60.88;101065.66;4900570;28;120524;-82
2022/06/22 11:53:29;;;;;;;2.40;1.40;;;;;;;21.17;59.92;101075.00;4916686;28;119932;-81
2022/06/22 11:56:01;;;;;;;3.75;1.73;;;;;;;21.18;60.12;101072.97;4892613;28;122043;-81
2022/06/22 11:59:06;;;;;;;4.32;2.10;;;;;;;21.32;60.50;101061.53;4929958;28;119756;-82
2022/06/22 12:01:54;;;;;;;3.22;1.80;;;;;;;21.51;60.28;101066.47;4896516;28;120660;-81
2022/06/22 12:04:30;;;;;;;3.28;1.88;;;;;;;21.63;59.34;101073.50;4924200;28;119718;-81
2022/06/22 12:07:05;;;;;;;3.93;1.70;;;;;;;21.74;58.28;101084.59;4911792;28;119794;-81
2022/06/22 12:09:59;;;;;;;3.30;1.90;;;;;;;21.76;57.84;101079.22;4915304;28;120117;-82
2022/06/22 12:13:21;;;;;;;5.47;1.70;;;;;;;21.81;59.02;101081.25;4909781;28;120269;-82
2022/06/22 12:16:02;;;;;;;2.97;1.88;;;;;;;21.91;57.67;101088.00;4842212;28;119935;-82
2022/06/22 12:18:58;;;;;;;3.03;1.70;;;;;;;21.99;59.14;101088.94;4907416;28;119814;-82
2022/06/22 12:21:36;;;;;;;2.83;1.67;;;;;;;22.11;58.84;101078.47;4911975;28;120565;-82
2022/06/22 12:24:07;;;;;;;3.40;1.60;;;;;;;22.20;57.57;101080.19;4910503;28;121699;-81
2022/06/22 12:26:36;;;;;;;3.97;1.70;;;;;;;22.26;58.08;101076.06;4878803;28;122178;-81
2022/06/22 12:29:27;;;;;;;3.80;1.40;;;;;;;22.21;56.46;101067.72;4912354;28;120176;-82